TAF Text Data
IDs:
Format:
Raw Decoded Include METAR

Data at: 1245 UTC 26 Feb 2021

KTPA 261120Z 2612/2718 VRB04KT P6SM SKC
  FM261500 11006KT P6SM FEW040
  FM261700 18007KT P6SM FEW040
  FM262000 24007KT P6SM FEW250
  FM270100 VRB03KT P6SM FEW030
  FM271600 17007KT P6SM SCT035 SCT250